Weather observations for the past three days for
Ardmore, Ardmore Downtown Executive Airport
Imperial (Metric)
Date Time (cdt) Wind (mph) Vis. (mi.) Weather Sky Cond. Temperature (ºF) Relative Humidity Wind Chill (°F) Heat Index (°F) Pressure Precipitation (in)
Air Dwpt 6 hour altimeter (in) sea level (mb) 1 hr 3 hr 6 hr
Max. Min.
31 10:35 SW 6 10.00 Fair CLR 91.2 67.1 45% 95 30.05 0.0
31 10:15 SW 7 10.00 Fair CLR 89.4 67.1 48% 93 30.05 0.0
31 09:55 SW 8 10.00 Fair CLR 87.8 66.9 50% 91 30.05 0.0
31 09:35 SW 7 10.00 Fair CLR 86.9 66.7 51% 90 30.05 0.0
31 09:15 SW 6 10.00 Fair CLR 84.7 67.3 56% 88 30.05 0.0
31 08:55 Calm 10.00 Fair CLR 80.8 66.2 61% 83 30.05 0.0
31 08:35 Calm 10.00 Fair CLR 78.3 65.1 64% 80 30.04 0.0
31 08:15 Calm 10.00 Fair CLR 77 64.8 66% 79 30.04 0.0
31 07:55 Calm 10.00 Fair CLR 74.7 64.8 71% 30.03 0.0
31 07:35 Calm 10.00 Fair CLR 71.1 64.2 79% 30.01 0.0
31 07:15 Calm 10.00 Fair CLR 70.3 63.5 79% 30 0.0
31 06:55 Calm 10.00 Fair CLR 70.9 63.5 81.3 70.5 78% 29.99 0.0
31 06:35 Calm 10.00 Fair CLR 72 63.5 75% 29.99 0.0
31 06:15 Calm 10.00 Fair CLR 71.6 63.1 75% 29.98 0.0
31 05:55 Calm 10.00 Fair CLR 72 63.1 74% 29.98 0.0
31 05:35 Calm 10.00 Fair CLR 73.6 63 70% 29.98 0.0
31 05:15 Calm 10.00 Fair CLR 73.9 63 69% 29.98 0.0
31 04:55 Calm 10.00 Fair CLR 75.7 62.8 64% 78 29.98 0.0
31 04:35 Calm 10.00 Fair CLR 74.1 63 68% 29.97 0.0
31 04:15 SW 3 10.00 Fair CLR 74.1 63.1 69% 29.97 0.0
31 03:55 Calm 10.00 Fair CLR 73.2 63.1 71% 29.97 0.0
31 03:35 Calm 10.00 Fair CLR 73.9 63.3 70% 29.96 0.0
31 03:15 Calm 10.00 Fair CLR 74.8 63.5 68% 29.96 0.0
31 02:55 Calm 10.00 Fair CLR 75 63.5 68% 77 29.96 0.0
31 02:35 Calm 10.00 Fair CLR 75.9 63.3 65% 78 29.97 0.0
31 02:15 Calm 10.00 Fair CLR 78.1 63.1 60% 80 29.96 0.0
31 01:55 Calm 10.00 Fair CLR 79.5 63.1 57% 81 29.96 0.0
31 01:35 SE 3 10.00 Fair CLR 80.1 63.1 56% 81 29.96 0.0
31 01:15 S 5 10.00 Fair CLR 80.8 62.8 54% 82 29.97 0.0
31 00:55 S 5 10.00 Fair CLR 81.5 62.4 97.5 81.3 52% 83 29.96 0.0
31 00:35 S 6 10.00 Fair CLR 82.6 61.7 49% 83 29.96 0.0
31 00:15 S 6 10.00 Fair CLR 82.8 61.3 48% 83 29.96 0.0
30 23:55 S 5 10.00 Fair CLR 82.8 60.8 48% 83 29.96 0.0
30 23:35 S 5 10.00 Fair CLR 82.8 59.9 46% 83 29.96 0.0
30 23:15 S 6 10.00 Fair CLR 82 59.5 47% 82 29.96 0.0
30 22:55 S 3 10.00 Fair CLR 81.9 62.4 52% 83 29.96 0.0
30 22:35 S 3 10.00 Fair CLR 82.8 63 51% 84 29.95 0.0
30 22:15 S 5 10.00 Fair CLR 83.7 63.5 51% 85 29.95 0.0
30 21:55 SE 3 10.00 Fair CLR 84.6 62.8 48% 85 29.95 0.0
30 21:35 SE 3 10.00 Fair CLR 85.1 63.1 48% 86 29.94 0.0
30 21:15 SE 5 10.00 Fair CLR 85.8 63.5 47% 87 29.93 0.0
30 20:55 SE 5 10.00 Fair CLR 87.1 63.3 45% 88 29.93 0.0
30 20:35 SE 5 10.00 Fair CLR 89.1 62.6 41% 90 29.92 0.0
30 20:15 SE 6 10.00 Fair CLR 90.9 62.1 38% 91 29.92 0.0
30 19:55 E 8 10.00 Fair CLR 92.8 61 35% 93 29.92 0.0
30 19:35 SE 9 10.00 Fair CLR 94.6 60.6 32% 95 29.91 0.0
30 19:15 SE 10 10.00 Fair CLR 96.1 59.4 29% 96 29.91 0.0
30 18:55 S 10 10.00 Fair CLR 97.9 57 103.8 97.2 26% 97 29.91 0.0
30 18:35 SE 10 10.00 Fair CLR 98.4 57.6 26% 98 29.92 0.0
30 18:15 SE 10 G 16 10.00 Fair CLR 99 59.4 27% 99 29.91 0.0
30 17:55 SE 15 G 20 10.00 Fair CLR 99.5 59.5 27% 100 29.91 0.0
30 17:35 S 13 10.00 Partly Cloudy SCT090 99.3 59.9 27% 100 29.91 0.0
30 17:15 SE 14 10.00 Partly Cloudy SCT090 100.8 60.8 27% 102 29.91 0.0
30 16:55 SE 10 10.00 Fair CLR 97.7 60.1 29% 98 29.92 0.0
30 16:35 S 8 10.00 Partly Cloudy SCT090 100.8 59 25% 101 29.92 0.0
30 16:15 S 12 10.00 Mostly Cloudy BKN090 101.8 60.6 26% 103 29.92 0.0
30 15:55 SE 10 G 18 10.00 Partly Cloudy SCT090 102.6 60.1 25% 103 29.93 0.0
30 15:35 S 13 G 21 10.00 Mostly Cloudy BKN090 102.9 59.7 24% 104 29.94 0.0
30 15:15 S 10 G 20 10.00 Partly Cloudy SCT090 101.8 59 24% 102 29.94 0.0
30 14:55 S 13 G 21 10.00 Fair CLR 99.7 59.9 27% 100 29.95 0.0
30 14:35 S 14 G 22 10.00 Partly Cloudy SCT090 102.2 59.7 25% 103 29.95 0.0
30 14:15 SW 9 G 21 10.00 Partly Cloudy SCT090 101.8 60.3 25% 103 29.96 0.0
30 13:55 S 8 G 18 10.00 Partly Cloudy SCT090 98.8 61.3 29% 100 29.96 0.0
30 13:35 S 12 G 20 10.00 Fair CLR 100.8 60.4 26% 102 29.97 0.0
30 13:15 S 10 G 25 10.00 Partly Cloudy SCT070 100.8 61.3 27% 102 29.98 0.0
30 12:55 SW 9 10.00 Partly Cloudy SCT070 99.5 62.8 100.6 73.4 30% 101 29.99 0.0
30 12:35 S 10 G 20 10.00 Partly Cloudy SCT070 99.3 63.1 30% 101 30 0.0
30 12:15 S 5 10.00 Partly Cloudy SCT070 98.1 64.6 33% 101 30 0.0
30 11:55 SW 8 10.00 Fair CLR 96.8 65.7 36% 100 30.01 0.0
30 11:35 S 8 10.00 Fair CLR 95.7 67.3 39% 100 30.02 0.0
30 11:15 S 8 10.00 Fair CLR 94.8 67.1 40% 99 30.03 0.0
30 10:55 SW 12 10.00 Fair CLR 93.6 67.3 42% 97 30.03 0.0
30 10:35 SW 7 10.00 Fair CLR 92.7 67.3 43% 96 30.03 0.0
30 10:15 SW 8 10.00 Fair CLR 90.5 67.1 46% 94 30.03 0.0
30 09:55 S 9 10.00 Fair CLR 89.1 66.4 47% 92 30.03 0.0
30 09:35 S 9 10.00 Fair CLR 87.6 66.2 49% 90 30.03 0.0
30 09:15 S 7 10.00 Fair CLR 85.8 66 52% 88 30.03 0.0
30 08:55 SE 8 10.00 Fair CLR 83.8 65.7 54% 86 30.03 0.0
30 08:35 SE 3 10.00 Fair CLR 80.2 64.4 59% 82 30.03 0.0
30 08:15 SE 3 10.00 Fair CLR 78.1 63.5 61% 80 30.03 0.0
30 07:55 Calm 10.00 Fair CLR 76.1 63 64% 78 30.02 0.0
30 07:35 Calm 10.00 Fair CLR 73.9 62.2 67% 30.02 0.0
30 07:15 Calm 10.00 Fair CLR 75 61.3 63% 77 30.01 0.0
30 06:55 Calm 10.00 Fair CLR 75.7 61.3 82.9 75.7 61% 78 30 0.0
30 06:35 Calm 10.00 Fair CLR 76.1 61.3 60% 78 29.99 0.0
30 06:15 SE 3 10.00 Fair CLR 76.3 61.3 60% 78 29.99 0.0
30 05:55 SE 3 10.00 Fair CLR 76.6 61.2 59% 78 29.99 0.0
30 05:35 SE 5 10.00 Fair CLR 77.2 61.2 58% 79 29.98 0.0
30 05:15 SE 5 10.00 Fair CLR 77.5 61 57% 79 29.98 0.0
30 04:55 SE 5 10.00 Fair CLR 78.8 60.6 54% 80 29.98 0.0
30 04:35 SE 6 10.00 Fair CLR 79.5 61 53% 81 29.98 0.0
30 04:15 SE 6 10.00 Fair CLR 80.4 61.5 53% 81 29.98 0.0
30 03:55 SE 7 10.00 Fair CLR 81.3 61.9 52% 82 29.97 0.0
30 03:35 SE 8 10.00 Fair CLR 81.9 61.9 51% 83 29.98 0.0
30 03:15 SE 8 10.00 Fair CLR 82.2 61.7 50% 83 29.98 0.0
30 02:55 SE 8 10.00 Fair CLR 82.8 61.2 48% 83 29.98 0.0
30 02:35 SE 8 10.00 Fair CLR 82.6 61.2 48% 83 29.98 0.0
30 02:15 SE 8 10.00 Fair CLR 82.6 61.5 49% 83 29.98 0.0
30 01:55 SE 7 10.00 Fair CLR 82.2 61.7 50% 83 29.98 0.0
30 01:35 SE 8 10.00 Fair CLR 82 61.5 50% 83 29.98 0.0
30 01:15 SE 8 10.00 Fair CLR 81.7 61.3 50% 82 29.98 0.0
30 00:55 SE 8 10.00 Fair CLR 81.1 61.9 98.2 79.3 52% 82 29.98 0.0
30 00:35 SE 8 10.00 Fair CLR 80.6 62.6 54% 82 29.98 0.0
30 00:15 SE 5 10.00 Fair CLR 79.5 62.2 56% 81 29.98 0.0
29 23:55 SE 3 10.00 Fair CLR 81 61.3 51% 82 29.98 0.0
29 23:35 SE 5 10.00 Fair CLR 81.9 61.2 50% 83 29.98 0.0
29 23:15 SE 5 10.00 Fair CLR 82.6 61 48% 83 29.98 0.0
29 22:55 SE 5 10.00 Fair CLR 82.9 60.6 47% 83 29.98 0.0
29 22:35 SE 5 10.00 Fair CLR 83.5 60.4 46% 84 29.97 0.0
29 22:15 SE 3 10.00 Fair CLR 83.7 60.6 46% 84 29.97 0.0
29 21:55 SE 5 10.00 Fair CLR 84.4 60.6 45% 85 29.97 0.0
29 21:35 SE 3 10.00 Fair CLR 85.3 61 44% 85 29.96 0.0
29 21:15 SE 3 10.00 Fair CLR 86.4 61.2 43% 87 29.95 0.0
29 20:55 SE 6 10.00 Fair CLR 87.1 62.2 43% 88 29.94 0.0
29 20:35 SE 5 10.00 Fair CLR 88.9 62.4 41% 89 29.94 0.0
29 20:15 SE 5 10.00 Fair CLR 90.3 63.5 41% 91 29.94 0.0
29 19:55 SE 6 10.00 Fair CLR 92.7 60.3 34% 92 29.94 0.0
29 19:35 S 7 10.00 Fair CLR 95.5 57.9 28% 95 29.94 0.0
29 19:15 S 7 10.00 Fair CLR 97.2 58.1 27% 96 29.93 0.0
29 18:55 S 12 10.00 Fair CLR 98.4 57.9 102.7 97.7 26% 98 29.93 0.0
29 18:35 SE 10 10.00 Fair CLR 99.3 57 24% 98 29.93 0.0
29 18:15 S 10 10.00 Fair CLR 99.5 57.6 25% 99 29.93 0.0
29 17:55 S 12 G 17 10.00 Fair CLR 100.4 58.1 25% 100 29.94 0.0
29 17:35 SE 14 G 18 10.00 Fair CLR 101.3 58.5 24% 101 29.94 0.0
29 17:15 SE 14 G 18 10.00 Fair CLR 100.9 59 25% 101 29.94 0.0
29 16:55 SE 9 10.00 Fair CLR 99 58.6 26% 99 29.95 0.0
29 16:35 SE 10 10.00 Partly Cloudy SCT110 101.7 59.7 25% 102 29.96 0.0
29 16:15 SE 10 10.00 Partly Cloudy SCT110 97.9 60.3 29% 98 29.96 0.0
29 15:55 SE 10 7.00 Fair CLR 101.1 61.2 27% 102 29.97 0.0
29 15:35 E 10 G 20 10.00 Partly Cloudy SCT095 SCT120 101.7 61 26% 103 29.98 0.0
29 15:15 SE 8 10.00 Partly Cloudy SCT095 SCT120 98.1 60.1 28% 98 29.99 0.0
29 14:55 SE 8 10.00 Partly Cloudy SCT085 100.8 61.2 27% 102 30 0.0
29 14:35 SE 12 G 18 10.00 Partly Cloudy SCT085 99 61.2 29% 100 30 0.0
29 14:15 S 9 10.00 Fair CLR 101.5 61.7 27% 103 30.01 0.0
29 13:55 S 9 10.00 Fair CLR 100.2 61.5 28% 102 30.02 0.0
29 13:35 SE 8 10.00 Fair CLR 99.5 62.1 29% 101 30.03 0.0
29 13:15 W 3 10.00 Fair CLR 99 62.8 30% 101 30.03 0.0
29 12:55 SW 7 10.00 Fair CLR 98.6 63.5 99 72 32% 101 30.04 0.0
29 12:35 S 5 10.00 Fair CLR 97.2 64.2 34% 100 30.05 0.0
29 12:15 SE 9 10.00 Fair CLR 96.6 65.5 36% 100 30.05 0.0
29 11:55 S 7 G 16 10.00 Fair CLR 95.5 66.2 38% 99 30.06 0.0
29 11:35 SE 8 10.00 Fair CLR 93.9 67.3 42% 98 30.06 0.0
29 11:15 SE 7 10.00 Fair CLR 92.5 67.3 44% 96 30.07 0.0
29 10:55 S 5 10.00 Fair CLR 91 67.6 46% 95 30.07 0.0
29 10:35 SE 7 10.00 Fair CLR 88.7 67.6 50% 92 30.07 0.0
29 10:15 SE 8 10.00 Fair CLR 87.4 67.5 52% 91 30.08 0.0
29 09:55 SE 8 10.00 Fair CLR 85.5 67.3 55% 88 30.08 0.0
29 09:35 SE 7 10.00 Fair CLR 84.6 67.1 56% 87 30.08 0.0
29 09:15 SE 6 10.00 Fair CLR 82.8 66.6 58% 85 30.08 0.0
29 08:55 SE 5 10.00 Fair CLR 80.4 66 62% 83 30.08 0.0
29 08:35 SE 6 10.00 Fair CLR 78.1 65.5 65% 80 30.08 0.0
29 08:15 SE 5 10.00 Fair CLR 76.6 64.8 67% 78 30.08 0.0
29 07:55 Calm 10.00 Fair CLR 75 64.4 70% 77 30.08 0.0
29 07:35 Calm 10.00 Fair CLR 72.1 63.7 75% 30.07 0.0
29 07:15 Calm 10.00 Fair CLR 72.5 63.1 73% 30.07 0.0
29 06:55 SE 5 10.00 Fair CLR 72.9 62.8 76.6 72 71% 30.06 0.0
29 06:35 SE 5 10.00 Fair CLR 72.5 62.6 71% 30.06 0.0
29 06:15 Calm 10.00 Fair CLR 73.6 62.4 68% 30.05 0.0
29 05:55 Calm 10.00 Fair CLR 74.3 62.2 66% 30.05 0.0
29 05:35 SE 3 10.00 Fair CLR 73.8 62.1 67% 30.05 0.0
29 05:15 Calm 10.00 Fair CLR 73.8 61.7 66% 30.05 0.0
29 04:55 Calm 10.00 Fair CLR 74.3 61 63% 30.04 0.0
29 04:35 Calm 10.00 Fair CLR 74.8 60.6 61% 30.04 0.0
29 04:15 Calm 10.00 Fair CLR 74.7 60.3 61% 30.04 0.0
29 03:55 Calm 10.00 Fair CLR 75.2 59.7 59% 78 30.04 0.0
29 03:35 Calm 10.00 Fair CLR 75.4 59.2 57% 78 30.04 0.0
29 03:15 SE 3 10.00 Fair CLR 75.9 58.1 54% 78 30.04 0.0
29 02:55 SE 3 10.00 Fair CLR 75 57 54% 78 30.04 0.0
29 02:35 SE 5 10.00 Fair CLR 74.5 56.3 53% 30.04 0.0
29 02:15 Calm 10.00 Fair CLR 75.9 54.3 47% 78 30.04 0.0
29 01:55 Calm 10.00 Fair CLR 72.5 55.6 55% 30.04 0.0
29 01:35 Calm 10.00 Fair CLR 73.2 55.8 54% 30.04 0.0
29 01:15 Calm 10.00 Fair CLR 73.9 55.6 53% 30.04 0.0
29 00:55 Calm 10.00 Fair CLR 73.9 56.1 98.2 73.8 54% 30.04 0.0
29 00:35 Calm 10.00 Fair CLR 74.7 56.3 53% 30.04 0.0
29 00:15 Calm 10.00 Fair CLR 77.5 55.6 47% 79 30.04 0.0
28 23:55 Calm 10.00 Fair CLR 78.8 55.4 45% 79 30.04 0.0
28 23:35 Calm 10.00 Fair CLR 78.4 56.5 47% 79 30.04 0.0
28 23:15 NE 7 10.00 Fair CLR 80.8 55.4 42% 81 30.04 0.0
28 22:55 N 3 10.00 Fair CLR 78.1 56.3 47% 79 30.03 0.0
28 22:35 Calm 10.00 Fair CLR 79 56.7 46% 80 30.03 0.0
28 22:15 Calm 10.00 Fair CLR 78.1 57.2 49% 79 30.02 0.0
28 21:55 Calm 10.00 Fair CLR 79.5 56.7 46% 80 30.01 0.0
28 21:35 Calm 10.00 Fair CLR 81.1 56.5 43% 81 30.01 0.0
28 21:15 Calm 10.00 Fair CLR 80.1 57.2 46% 80 30 0.0
28 20:55 Calm 10.00 Fair CLR 83.7 56.7 40% 83 29.99 0.0
28 20:35 Calm 10.00 Fair CLR 87.3 55.8 34% 86 29.99 0.0
28 20:15 Calm 10.00 Fair CLR 88.7 55.4 32% 87 29.98 0.0
28 19:55 SE 5 10.00 Fair CLR 91.8 55.4 29% 90 29.98 0.0
28 19:35 E 5 10.00 Fair CLR 94.5 55.2 27% 93 29.98 0.0
28 19:15 E 8 10.00 Fair CLR 97 55.2 25% 95 29.97 0.0
28 18:55 E 8 10.00 Fair CLR 98.2 55.9 102.9 96.1 24% 97 29.97 0.0
28 18:35 E 10 10.00 Partly Cloudy SCT100 99 55.9 24% 98 29.97 0.0
28 18:15 E 5 10.00 Mostly Cloudy BKN100 99.9 56.5 24% 99 29.97 0.0
28 17:55 Calm 10.00 Partly Cloudy SCT110 99.7 56.7 24% 99 29.97 0.0
28 17:35 SE 6 10.00 Fair CLR 100.4 56.5 23% 99 29.98 0.0
28 17:15 SE 10 10.00 Partly Cloudy SCT095 101.1 57.2 23% 100 29.98 0.0
28 16:55 E 6 10.00 Partly Cloudy SCT095 101.7 58.3 24% 102 29.98 0.0
28 16:35 W 5 10.00 Fair CLR 100.2 57.9 25% 100 29.99 0.0
28 16:15 SE 12 10.00 Fair CLR 101.7 57.7 23% 101 30 0.0
28 15:55 W 7 10.00 Fair CLR 100.4 56.5 23% 99 30.01 0.0
28 15:35 NE 10 10.00 Fair CLR 100.6 56.3 23% 99 30.02 0.0
28 15:15 S 6 10.00 Fair CLR 102.4 57.7 23% 102 30.03 0.0
28 14:55 SE 9 10.00 Partly Cloudy SCT090 100.4 56.8 24% 100 30.04 0.0
28 14:35 E 7 10.00 Partly Cloudy SCT090 100.8 57.7 24% 100 30.05 0.0
28 14:15 N 8 10.00 Partly Cloudy SCT080 100.2 59.2 26% 100 30.05 0.0
28 13:55 E 6 10.00 Mostly Cloudy BKN080 98.6 58.8 27% 98 30.06 0.0
28 13:35 E 9 10.00 Mostly Cloudy BKN080 99 60.4 28% 100 30.06 0.0
28 13:15 E 3 10.00 Partly Cloudy SCT080 96.6 60.1 30% 97 30.07 0.0
28 12:55 NE 5 10.00 Fair CLR 97 60.4 98.1 70.7 30% 97 30.08 0.0
28 12:35 NE 6 10.00 Fair CLR 97.3 61.7 31% 98 30.09 0.0
28 12:15 NW 3 10.00 Fair CLR 96.1 62.4 33% 97 30.1 0.0
28 11:55 E 6 10.00 Fair CLR 94.8 63 35% 96 30.1 0.0
28 11:35 Calm 10.00 Fair CLR 94.1 63.7 37% 96 30.1 0.0
28 11:15 N 3 10.00 Fair CLR 93.6 65.5 40% 96 30.11 0.0
28 10:55 NE 5 10.00 Fair CLR 92.3 66.4 43% 95 30.11 0.0
Date Time (cdt) Wind (mph) Vis. (mi.) Weather Sky Cond. Air Dwpt Max. Min. Relative Humidity Wind Chill (°F) Heat Index (°F) altimeter (in) sea level (mb) 1 hr 3 hr 6 hr
6 hour
Temperature (ºF) Pressure Precipitation (in)